createdAt,value
2018-07-04T00:00:30.093Z,13.00
2018-07-04T00:03:09.096Z,12.90
2018-07-04T00:05:48.188Z,12.90
2018-07-04T00:08:27.418Z,12.90
2018-07-04T00:11:06.518Z,12.80
2018-07-04T00:13:45.521Z,12.90
2018-07-04T00:16:24.833Z,12.80
2018-07-04T00:19:04.177Z,12.80
2018-07-04T00:21:43.433Z,12.80
2018-07-04T00:24:22.589Z,12.80
2018-07-04T00:27:01.817Z,12.90
2018-07-04T00:29:41.203Z,12.90
2018-07-04T00:32:20.260Z,13.00
2018-07-04T00:34:59.418Z,12.90
2018-07-04T00:40:12.175Z,12.60
2018-07-04T00:42:51.517Z,12.50
2018-07-04T00:45:30.818Z,12.30
2018-07-04T00:48:09.967Z,12.20
2018-07-04T00:50:49.300Z,12.10
2018-07-04T00:53:28.313Z,12.00
2018-07-04T00:58:41.502Z,11.90
2018-07-04T01:01:20.809Z,11.80
2018-07-04T01:04:00.090Z,11.80
2018-07-04T01:06:39.393Z,11.70
2018-07-04T01:09:18.546Z,11.80
2018-07-04T01:11:57.797Z,11.70
2018-07-04T01:14:36.714Z,11.60
2018-07-04T01:17:16.265Z,11.60
2018-07-04T01:19:55.335Z,11.50
2018-07-04T01:22:34.593Z,11.60
2018-07-04T01:25:13.674Z,11.60
2018-07-04T01:27:52.786Z,11.60
2018-07-04T01:33:05.403Z,11.50
2018-07-04T01:35:44.584Z,11.50
2018-07-04T01:38:23.770Z,11.40
2018-07-04T01:41:02.849Z,11.40
2018-07-04T01:43:42.098Z,11.40
2018-07-04T01:46:21.306Z,11.30
2018-07-04T01:49:00.606Z,11.20
2018-07-04T01:51:39.845Z,11.20
2018-07-04T01:54:18.885Z,11.10
2018-07-04T01:56:58.119Z,11.10
2018-07-04T01:59:37.314Z,11.00
2018-07-04T02:02:17.446Z,11.00
2018-07-04T02:04:56.575Z,10.90
2018-07-04T02:07:35.836Z,10.90
2018-07-04T02:10:14.895Z,10.80
2018-07-04T02:12:53.966Z,10.90
2018-07-04T02:15:33.105Z,10.90
2018-07-04T02:18:12.460Z,10.90
2018-07-04T02:20:51.771Z,10.90
2018-07-04T02:23:30.767Z,10.90
2018-07-04T02:26:09.743Z,10.80
2018-07-04T02:28:49.132Z,10.80
2018-07-04T02:31:28.146Z,10.80
2018-07-04T02:34:07.277Z,10.80
2018-07-04T02:36:46.358Z,10.70
2018-07-04T02:39:25.724Z,10.70
2018-07-04T02:42:04.843Z,10.60
2018-07-04T02:44:44.193Z,10.60
2018-07-04T02:47:26.267Z,10.70
2018-07-04T02:50:05.837Z,10.70
2018-07-04T02:52:45.187Z,10.70
2018-07-04T02:55:24.590Z,10.60
2018-07-04T02:58:03.570Z,10.50
2018-07-04T03:00:42.764Z,10.50
2018-07-04T03:03:22.140Z,10.70
2018-07-04T03:06:01.434Z,10.60
2018-07-04T03:08:40.804Z,10.70
2018-07-04T03:11:20.118Z,10.70
2018-07-04T03:13:59.216Z,10.70
2018-07-04T03:16:38.451Z,10.60
2018-07-04T03:19:17.744Z,10.60
2018-07-04T03:21:56.758Z,10.60
2018-07-04T03:24:36.076Z,10.60
2018-07-04T03:27:15.266Z,10.70
2018-07-04T03:29:54.562Z,10.80
2018-07-04T03:32:33.851Z,10.90
2018-07-04T03:35:13.098Z,10.90
2018-07-04T03:37:52.309Z,10.90
2018-07-04T03:40:31.398Z,10.80
2018-07-04T03:43:10.700Z,10.70
2018-07-04T03:45:50.099Z,10.70
2018-07-04T03:48:29.102Z,10.60
2018-07-04T03:51:08.434Z,10.60
2018-07-04T03:53:47.603Z,10.60
2018-07-04T03:56:26.730Z,10.60
2018-07-04T04:01:39.043Z,10.60
2018-07-04T04:04:18.165Z,10.60
2018-07-04T04:06:57.199Z,10.60
2018-07-04T04:09:36.338Z,10.60
2018-07-04T04:12:15.661Z,10.60
2018-07-04T04:14:54.917Z,10.60
2018-07-04T04:17:34.094Z,10.70
2018-07-04T04:20:13.268Z,10.90
2018-07-04T04:22:52.371Z,11.00
2018-07-04T04:25:31.388Z,11.20
2018-07-04T04:28:10.621Z,11.50
2018-07-04T04:30:49.830Z,11.60
2018-07-04T04:33:28.927Z,11.80
2018-07-04T04:36:08.030Z,11.90
2018-07-04T04:38:47.146Z,12.00
2018-07-04T04:41:26.201Z,12.10
2018-07-04T04:44:05.321Z,12.20
2018-07-04T04:46:44.232Z,12.20
2018-07-04T04:49:23.362Z,12.40
2018-07-04T04:52:02.553Z,12.50
2018-07-04T04:54:41.833Z,12.60
2018-07-04T04:57:20.896Z,12.60
2018-07-04T05:00:00.364Z,12.70
2018-07-04T05:02:42.650Z,12.70
2018-07-04T05:05:21.718Z,12.80
2018-07-04T05:08:00.544Z,12.90
2018-07-04T05:10:39.325Z,13.00
2018-07-04T05:13:18.552Z,13.10
2018-07-04T05:15:58.785Z,13.20
2018-07-04T05:18:37.651Z,13.30
2018-07-04T05:21:16.994Z,13.50
2018-07-04T05:23:56.672Z,13.60
2018-07-04T05:26:36.374Z,13.70
2018-07-04T05:29:15.411Z,13.80
2018-07-04T05:31:54.488Z,13.90
2018-07-04T05:34:33.412Z,14.00
2018-07-04T05:37:12.440Z,14.20
2018-07-04T05:39:51.379Z,14.30
2018-07-04T05:42:30.080Z,14.40
2018-07-04T05:45:09.231Z,14.60
2018-07-04T06:01:04.125Z,14.80
2018-07-04T06:03:45.347Z,16.40
2018-07-04T06:06:24.229Z,16.60
2018-07-04T06:09:04.272Z,16.70
2018-07-04T06:11:43.083Z,16.90
2018-07-04T06:14:22.122Z,17.10
2018-07-04T06:17:01.250Z,17.20
2018-07-04T06:19:40.160Z,17.30
2018-07-04T06:22:19.375Z,17.50
2018-07-04T06:24:58.384Z,18.30
2018-07-04T06:27:37.522Z,20.50
2018-07-04T06:30:16.799Z,22.70
2018-07-04T06:32:55.978Z,24.60
2018-07-04T06:35:35.033Z,26.20
2018-07-04T06:38:01.694Z,27.60
2018-07-04T06:40:28.349Z,28.40
2018-07-04T06:42:55.101Z,29.20
2018-07-04T06:45:21.680Z,29.40
2018-07-04T06:47:48.300Z,29.20
2018-07-04T06:50:14.938Z,28.90
2018-07-04T06:52:41.650Z,28.70
2018-07-04T06:55:08.317Z,28.80
2018-07-04T06:57:34.962Z,29.20
2018-07-04T07:00:01.776Z,29.10
2018-07-04T07:02:28.396Z,29.10
2018-07-04T07:05:07.232Z,29.50
2018-07-04T07:07:46.488Z,29.80
2018-07-04T07:10:29.044Z,30.40
2018-07-04T07:15:42.484Z,31.00
2018-07-04T07:18:21.739Z,31.10
2018-07-04T07:21:13.603Z,31.80
2018-07-04T07:23:52.842Z,31.70
2018-07-04T07:26:32.072Z,31.90
2018-07-04T07:29:11.280Z,32.50
2018-07-04T07:31:50.526Z,32.50
2018-07-04T07:34:29.543Z,32.70
2018-07-04T07:37:08.723Z,32.60
2018-07-04T07:39:47.930Z,32.60
2018-07-04T07:42:26.915Z,32.80
2018-07-04T07:45:05.928Z,32.70
2018-07-04T07:47:44.990Z,33.00
2018-07-04T07:50:23.963Z,33.30
2018-07-04T07:53:02.966Z,33.40
2018-07-04T07:55:42.195Z,33.00
2018-07-04T07:58:21.388Z,32.70
2018-07-04T08:01:00.687Z,32.60
2018-07-04T08:03:39.685Z,32.90
2018-07-04T08:06:18.653Z,32.50
2018-07-04T08:09:00.334Z,32.50
2018-07-04T08:11:39.422Z,32.10
2018-07-04T08:14:18.595Z,31.80
2018-07-04T08:16:57.721Z,31.70
2018-07-04T08:19:37.024Z,31.90
2018-07-04T08:22:16.197Z,31.90
2018-07-04T08:24:55.284Z,31.80
2018-07-04T08:27:34.380Z,31.80
2018-07-04T08:30:13.478Z,31.90
2018-07-04T08:32:52.598Z,32.00
2018-07-04T08:35:31.753Z,31.60
2018-07-04T08:38:11.062Z,31.50
2018-07-04T08:40:50.199Z,31.60
2018-07-04T08:43:29.377Z,31.50
2018-07-04T08:46:08.724Z,31.30
2018-07-04T08:48:49.537Z,31.30
2018-07-04T08:51:28.921Z,31.20
2018-07-04T08:54:08.108Z,31.20
2018-07-04T08:56:47.359Z,31.40
2018-07-04T08:59:30.867Z,31.30
2018-07-04T09:04:43.135Z,31.10
2018-07-04T09:07:22.064Z,31.10
2018-07-04T09:10:01.201Z,31.20
2018-07-04T09:12:40.395Z,31.00
2018-07-04T09:15:19.575Z,31.00
2018-07-04T09:17:58.625Z,30.90
2018-07-04T09:20:37.748Z,30.90
2018-07-04T09:23:17.004Z,30.90
2018-07-04T09:25:56.081Z,30.80
2018-07-04T09:28:35.117Z,30.60
2018-07-04T09:31:14.394Z,30.40
2018-07-04T09:33:53.365Z,30.30
2018-07-04T09:36:32.593Z,30.10
2018-07-04T09:39:12.817Z,29.90
2018-07-04T09:41:52.026Z,29.80
2018-07-04T09:44:31.113Z,29.70
2018-07-04T09:47:10.331Z,29.60
2018-07-04T09:49:49.590Z,29.50
2018-07-04T09:52:28.751Z,29.50
2018-07-04T09:55:08.039Z,29.40
2018-07-04T09:57:54.425Z,29.50
2018-07-04T10:00:38.018Z,29.60
2018-07-04T10:03:17.643Z,29.80
2018-07-04T10:05:56.825Z,29.90
2018-07-04T10:08:36.057Z,30.00
2018-07-04T10:11:15.120Z,30.00
2018-07-04T10:13:54.222Z,30.10
2018-07-04T10:16:33.351Z,30.00
2018-07-04T10:21:45.647Z,30.00
2018-07-04T10:24:24.851Z,30.00
2018-07-04T10:27:04.118Z,29.90
2018-07-04T10:29:43.223Z,30.10
2018-07-04T10:32:22.375Z,30.20
2018-07-04T10:35:01.332Z,30.20
2018-07-04T10:37:40.470Z,30.20
2018-07-04T10:40:19.572Z,30.20
2018-07-04T10:42:58.725Z,30.30
2018-07-04T10:45:37.914Z,30.30
2018-07-04T10:48:16.870Z,30.40
2018-07-04T10:50:56.110Z,30.30
2018-07-04T10:53:35.026Z,30.20
2018-07-04T10:56:16.053Z,30.40
2018-07-04T10:58:55.194Z,30.60
2018-07-04T11:01:34.265Z,30.70
2018-07-04T11:04:13.402Z,30.60
2018-07-04T11:06:52.602Z,30.70
2018-07-04T11:09:31.649Z,30.90
2018-07-04T11:12:10.792Z,31.00
2018-07-04T11:14:50.047Z,30.90
2018-07-04T11:17:29.263Z,30.90
2018-07-04T11:20:08.275Z,30.70
2018-07-04T11:22:47.422Z,30.70
2018-07-04T11:25:26.474Z,30.40
2018-07-04T11:28:05.516Z,30.30
2018-07-04T11:30:44.518Z,30.30
2018-07-04T11:33:23.504Z,30.30
2018-07-04T11:36:02.644Z,30.30
2018-07-04T11:38:42.045Z,30.30
2018-07-04T11:41:21.129Z,30.40
2018-07-04T11:44:00.240Z,30.30
2018-07-04T11:46:27.011Z,30.40
2018-07-04T11:48:53.741Z,30.60
2018-07-04T11:51:21.477Z,30.50
2018-07-04T11:53:53.997Z,30.40
2018-07-04T11:56:20.694Z,30.20
2018-07-04T11:58:47.351Z,30.10
2018-07-04T12:01:14.525Z,30.00
2018-07-04T12:03:53.723Z,29.80
2018-07-04T12:06:32.786Z,29.80
2018-07-04T12:09:00.309Z,29.70
2018-07-04T12:11:27.923Z,29.80
2018-07-04T12:13:54.522Z,29.80
2018-07-04T12:16:21.242Z,29.80
2018-07-04T12:21:15.216Z,29.90
2018-07-04T12:23:41.955Z,30.30
2018-07-04T12:26:08.669Z,30.70
2018-07-04T12:28:35.304Z,30.90
2018-07-04T12:31:01.934Z,31.10
2018-07-04T12:33:28.512Z,31.30
2018-07-04T12:35:55.202Z,31.50
2018-07-04T12:38:22.177Z,31.40
2018-07-04T12:40:48.820Z,31.50
2018-07-04T12:43:15.449Z,31.70
2018-07-04T12:45:42.151Z,31.90
2018-07-04T12:48:08.768Z,32.00
2018-07-04T12:50:35.383Z,32.00
2018-07-04T12:53:02.097Z,32.00
2018-07-04T12:55:42.811Z,32.20
2018-07-04T12:58:22.235Z,32.40
2018-07-04T13:01:01.465Z,32.20
2018-07-04T13:03:40.622Z,31.60
2018-07-04T13:06:20.207Z,31.20
2018-07-04T13:09:00.347Z,30.80
2018-07-04T13:11:39.450Z,30.60
2018-07-04T13:14:19.385Z,30.60
2018-07-04T13:16:58.353Z,30.40
2018-07-04T13:19:37.555Z,30.40
2018-07-04T13:22:16.495Z,30.50
2018-07-04T13:24:55.809Z,30.30
2018-07-04T13:27:34.841Z,30.30
2018-07-04T13:30:14.040Z,30.30
2018-07-04T13:32:53.341Z,30.20
2018-07-04T13:35:32.521Z,30.00
2018-07-04T13:38:11.626Z,29.90
2018-07-04T13:40:50.812Z,29.80
2018-07-04T13:43:29.961Z,29.60
2018-07-04T13:46:12.733Z,29.60
2018-07-04T13:48:51.789Z,29.40
2018-07-04T13:51:30.752Z,29.50
2018-07-04T13:54:09.646Z,29.30
2018-07-04T13:56:50.042Z,29.10
2018-07-04T13:59:29.206Z,28.90
2018-07-04T14:02:08.664Z,28.80
2018-07-04T14:04:47.834Z,28.90
2018-07-04T14:07:26.905Z,28.90
2018-07-04T14:10:06.064Z,28.90
2018-07-04T14:12:45.270Z,28.80
2018-07-04T14:15:24.832Z,28.90
2018-07-04T14:18:03.927Z,29.00
2018-07-04T14:20:43.334Z,29.00
2018-07-04T14:23:22.555Z,29.00
2018-07-04T14:26:01.722Z,29.30
2018-07-04T14:28:40.744Z,29.40
2018-07-04T14:33:54.718Z,29.90
2018-07-04T14:36:33.902Z,29.70
2018-07-04T14:39:13.198Z,29.60
2018-07-04T14:41:52.335Z,29.40
2018-07-04T14:44:31.704Z,29.50
2018-07-04T14:47:10.979Z,29.30
2018-07-04T14:49:50.015Z,29.50
2018-07-04T14:52:30.156Z,29.60
2018-07-04T14:55:09.229Z,29.80
2018-07-04T14:57:48.555Z,30.00
2018-07-04T15:00:27.424Z,30.20
2018-07-04T15:03:06.520Z,30.20
2018-07-04T15:05:45.618Z,30.40
2018-07-04T15:08:24.800Z,30.30
2018-07-04T15:11:03.777Z,30.30
2018-07-04T15:13:42.930Z,30.40
2018-07-04T15:16:22.376Z,30.40
2018-07-04T15:19:01.523Z,30.30
2018-07-04T15:21:40.582Z,30.30
2018-07-04T15:24:19.710Z,30.30
2018-07-04T15:26:58.884Z,30.20
2018-07-04T15:29:41.885Z,30.00
2018-07-04T15:32:21.140Z,29.90
2018-07-04T15:35:01.775Z,29.90
2018-07-04T15:37:40.885Z,29.80
2018-07-04T15:40:20.055Z,29.70
2018-07-04T15:45:32.707Z,29.50
2018-07-04T15:48:12.301Z,29.40
2018-07-04T15:50:52.051Z,29.30
2018-07-04T15:53:31.140Z,29.20
2018-07-04T15:56:10.152Z,29.20
2018-07-04T15:58:49.718Z,29.10
2018-07-04T16:01:30.762Z,29.20
2018-07-04T16:04:10.074Z,29.20
2018-07-04T16:06:50.277Z,29.10
2018-07-04T16:09:29.289Z,29.10
2018-07-04T16:12:08.426Z,29.10
2018-07-04T16:14:48.142Z,29.10
2018-07-04T16:17:27.380Z,29.00
2018-07-04T16:20:06.555Z,29.00
2018-07-04T16:22:45.831Z,29.00
2018-07-04T16:25:25.184Z,28.90
2018-07-04T16:28:04.204Z,28.90
2018-07-04T16:30:43.636Z,28.80
2018-07-04T16:33:22.720Z,28.80
2018-07-04T16:36:01.847Z,28.80
2018-07-04T16:38:42.078Z,28.80
2018-07-04T16:41:24.525Z,28.80
2018-07-04T16:44:03.661Z,28.80
2018-07-04T16:46:42.920Z,28.70
2018-07-04T16:49:21.929Z,28.70
2018-07-04T16:52:01.101Z,28.60
2018-07-04T16:54:40.204Z,28.70
2018-07-04T16:57:19.618Z,28.80
2018-07-04T16:59:58.833Z,28.90
2018-07-04T17:02:37.907Z,29.00
2018-07-04T17:05:17.303Z,29.00
2018-07-04T17:07:56.334Z,28.80
2018-07-04T17:10:35.711Z,28.70
2018-07-04T17:13:14.626Z,28.60
2018-07-04T17:15:53.911Z,28.50
2018-07-04T17:18:32.952Z,28.40
2018-07-04T17:21:11.956Z,28.30
2018-07-04T17:23:51.124Z,28.10
2018-07-04T17:26:30.344Z,28.10
2018-07-04T17:29:09.533Z,28.00
2018-07-04T17:31:48.870Z,27.90
2018-07-04T17:34:28.342Z,27.80
2018-07-04T17:37:07.454Z,27.80
2018-07-04T17:39:46.668Z,27.70
2018-07-04T17:42:26.314Z,27.60
2018-07-04T17:45:05.502Z,27.60
2018-07-04T17:47:44.765Z,27.60
2018-07-04T17:50:24.346Z,27.40
2018-07-04T17:53:03.336Z,27.30
2018-07-04T17:55:42.644Z,27.10
2018-07-04T17:58:21.749Z,27.10
2018-07-04T18:01:00.852Z,27.00
2018-07-04T18:03:40.180Z,26.90
2018-07-04T18:06:19.256Z,26.80
2018-07-04T18:08:58.475Z,26.70
2018-07-04T18:11:40.515Z,26.60
2018-07-04T18:14:19.829Z,26.50
2018-07-04T18:16:59.158Z,26.50
2018-07-04T18:19:38.145Z,26.40
2018-07-04T18:22:17.940Z,26.40
2018-07-04T18:24:57.101Z,26.30
2018-07-04T18:27:36.601Z,26.10
2018-07-04T18:30:15.770Z,26.10
2018-07-04T18:32:55.039Z,25.90
2018-07-04T18:35:34.328Z,25.80
2018-07-04T18:38:13.599Z,25.80
2018-07-04T18:40:53.193Z,25.60
2018-07-04T18:43:32.357Z,25.70
2018-07-04T18:46:11.395Z,25.60
2018-07-04T18:48:50.638Z,25.60
2018-07-04T18:51:29.811Z,25.60
2018-07-04T18:54:08.992Z,25.50
2018-07-04T18:56:48.254Z,25.40
2018-07-04T18:59:27.377Z,25.30
2018-07-04T19:02:06.709Z,25.20
2018-07-04T19:04:46.047Z,25.10
2018-07-04T19:07:25.418Z,25.00
2018-07-04T19:10:04.677Z,24.80
2018-07-04T19:12:44.785Z,24.80
2018-07-04T19:15:24.589Z,24.70
2018-07-04T19:18:03.753Z,24.60
2018-07-04T19:20:43.054Z,24.50
2018-07-04T19:23:22.588Z,24.40
2018-07-04T19:26:01.820Z,24.20
2018-07-04T19:28:41.035Z,24.10
2018-07-04T19:31:20.246Z,24.00
2018-07-04T19:33:59.457Z,23.90
2018-07-04T19:36:38.511Z,23.80
2018-07-04T19:39:17.851Z,23.70
2018-07-04T19:41:57.123Z,23.60
2018-07-04T19:44:36.213Z,23.50
2018-07-04T19:47:15.610Z,23.40
2018-07-04T19:49:54.910Z,23.30
2018-07-04T19:52:34.082Z,23.20
2018-07-04T19:55:13.967Z,23.10
2018-07-04T20:00:26.546Z,22.90
2018-07-04T20:03:05.752Z,22.80
2018-07-04T20:05:44.905Z,22.70
2018-07-04T20:08:24.211Z,22.60
2018-07-04T20:11:03.385Z,22.50
2018-07-04T20:13:42.454Z,22.40
2018-07-04T20:16:21.930Z,22.30
2018-07-04T20:19:01.084Z,22.30
2018-07-04T20:21:40.311Z,22.20
2018-07-04T20:24:19.428Z,22.10
2018-07-04T20:26:58.519Z,22.00
2018-07-04T20:29:37.862Z,21.80
2018-07-04T20:32:17.038Z,21.70
2018-07-04T20:34:56.245Z,21.70
2018-07-04T20:37:35.452Z,21.50
2018-07-04T20:40:14.828Z,21.50
2018-07-04T20:42:53.750Z,21.40
2018-07-04T20:45:32.806Z,21.30
2018-07-04T20:48:12.074Z,21.20
2018-07-04T20:50:51.242Z,21.20
2018-07-04T20:53:30.313Z,21.10
2018-07-04T20:56:09.696Z,21.10
2018-07-04T20:58:48.902Z,21.00
2018-07-04T21:01:29.067Z,21.00
2018-07-04T21:04:08.483Z,20.90
2018-07-04T21:06:49.255Z,20.80
2018-07-04T21:09:28.480Z,20.70
2018-07-04T21:12:07.686Z,20.60
2018-07-04T21:14:46.938Z,20.50
2018-07-04T21:17:26.153Z,20.50
2018-07-04T21:20:05.455Z,20.40
2018-07-04T21:22:45.915Z,20.30
2018-07-04T21:25:25.096Z,20.20
2018-07-04T21:30:37.686Z,20.00
2018-07-04T21:33:16.830Z,19.90
2018-07-04T21:35:55.984Z,19.90
2018-07-04T21:38:35.168Z,19.80
2018-07-04T21:41:15.036Z,19.80
2018-07-04T21:43:54.433Z,19.70
2018-07-04T21:46:35.901Z,19.60
2018-07-04T21:49:15.343Z,19.50
2018-07-04T21:51:54.788Z,19.40
2018-07-04T21:54:34.330Z,19.30
2018-07-04T21:57:14.891Z,19.20
2018-07-04T21:59:54.082Z,19.10
2018-07-04T22:02:33.195Z,19.10
2018-07-04T22:07:47.100Z,18.90
2018-07-04T22:10:26.641Z,19.10
2018-07-04T22:13:06.493Z,19.10
2018-07-04T22:15:45.677Z,19.10
2018-07-04T22:18:25.218Z,19.10
2018-07-04T22:21:04.373Z,19.10
2018-07-04T22:23:43.630Z,19.00
2018-07-04T22:26:23.859Z,19.00
2018-07-04T22:29:03.495Z,19.00
2018-07-04T22:31:42.964Z,18.90
2018-07-04T22:34:23.934Z,18.80
2018-07-04T22:37:02.948Z,18.80
2018-07-04T22:39:42.027Z,18.80
2018-07-04T22:42:21.217Z,18.70
2018-07-04T22:45:00.288Z,18.70
2018-07-04T22:47:39.632Z,18.60
2018-07-04T22:50:18.960Z,18.40
2018-07-04T22:52:57.956Z,18.30
2018-07-04T22:55:37.035Z,18.30
2018-07-04T22:58:16.059Z,18.20
2018-07-04T23:00:55.083Z,18.20
2018-07-04T23:03:34.173Z,18.10
2018-07-04T23:06:13.358Z,18.10
2018-07-04T23:08:52.495Z,18.10
2018-07-04T23:11:31.647Z,18.00
2018-07-04T23:14:11.045Z,17.90
2018-07-04T23:16:50.208Z,17.80
2018-07-04T23:19:29.388Z,17.80
2018-07-04T23:22:08.352Z,17.80
2018-07-04T23:24:47.508Z,17.70
2018-07-04T23:27:26.418Z,17.70
2018-07-04T23:30:05.590Z,17.60
2018-07-04T23:32:44.675Z,17.60
2018-07-04T23:35:23.984Z,17.50
2018-07-04T23:38:02.940Z,17.50
2018-07-04T23:40:42.050Z,17.40
2018-07-04T23:43:21.137Z,17.40
2018-07-04T23:46:00.438Z,17.50
2018-07-04T23:48:39.523Z,17.50
2018-07-04T23:51:18.994Z,17.50
2018-07-04T23:53:57.977Z,17.50
2018-07-04T23:56:37.000Z,17.50
2018-07-04T23:59:16.079Z,17.60
